Terminal Aerodrome Forecast
Issued by NWS

Home | Current Version | Previous Version | Text Only | Print | Product List | Glossary On
Versions: 1 2 3 4 5 6 7 8 9 10 11 12 13
000
FTUS42 TJSJ 301738
TAFJPS
TAF
TJPS 301738Z 3018/3118 15010G15KT P6SM VCSH SCT040
     FM302250 04003KT P6SM SKC
     FM311450 14011KT P6SM SKC=

USA.gov is the U.S. government's official web portal to all federal, state and local government web resources and services.